Time;durP1;ratioP1;P1;durP2;ratioP2;P2;SDS_P1;SDS_P2;PMS_P1;PMS_P2;Temp;Humidity;BMP_temperature;BMP_pressure;BME280_temperature;BME280_humidity;BME280_pressure;Samples;Min_cycle;Max_cycle;Signal;HPM_P1;HPM_P2
2022/02/07 00:01:49;;;;;;;0.50;0.40;;;3.10;99.90;;;;;;5056894;28;20286;-80
2022/02/07 00:04:22;;;;;;;0.50;0.40;;;3.10;99.90;;;;;;5109366;22;20269;-78
2022/02/07 00:06:50;;;;;;;0.50;0.43;;;3.00;99.90;;;;;;5044269;28;20222;-78
2022/02/07 00:09:16;;;;;;;0.50;0.40;;;2.90;99.90;;;;;;5054238;28;20201;-77
2022/02/07 00:11:43;;;;;;;0.50;0.40;;;2.90;99.90;;;;;;5054494;28;20202;-78
2022/02/07 00:14:11;;;;;;;0.50;0.40;;;2.80;99.90;;;;;;5054808;28;20225;-77
2022/02/07 00:16:40;;;;;;;0.50;0.40;;;2.70;99.90;;;;;;5054737;28;20199;-78
2022/02/07 00:19:10;;;;;;;0.50;0.40;;;2.70;99.90;;;;;;5056406;28;20195;-78
2022/02/07 00:21:37;;;;;;;0.50;0.40;;;2.70;99.90;;;;;;5054609;28;20214;-77
2022/02/07 00:24:06;;;;;;;0.50;0.43;;;2.70;99.90;;;;;;5055365;28;20228;-76
2022/02/07 00:26:33;;;;;;;0.40;0.40;;;2.70;99.90;;;;;;5054849;28;20202;-77
2022/02/07 00:29:09;;;;;;;0.50;0.45;;;2.70;99.90;;;;;;5054530;28;20225;-77
2022/02/07 00:31:36;;;;;;;3.65;1.05;;;2.70;99.90;;;;;;5055013;28;20194;-77
2022/02/07 00:34:02;;;;;;;0.50;0.40;;;2.80;99.90;;;;;;5054999;28;20264;-78
2022/02/07 00:36:31;;;;;;;5.78;1.17;;;2.80;99.90;;;;;;5055536;28;20765;-78
2022/02/07 00:39:04;;;;;;;0.50;0.40;;;2.80;99.90;;;;;;5075811;28;20174;-79
2022/02/07 00:41:39;;;;;;;0.50;0.50;;;2.80;99.90;;;;;;5054576;28;20726;-77
2022/02/07 00:44:12;;;;;;;0.40;0.40;;;2.80;99.90;;;;;;5054973;28;20237;-77
2022/02/07 00:46:47;;;;;;;0.50;0.40;;;2.70;99.90;;;;;;5054645;28;20206;-76
2022/02/07 00:49:13;;;;;;;0.50;0.40;;;2.70;99.90;;;;;;5053659;28;20240;-77
2022/02/07 00:51:40;;;;;;;0.50;0.40;;;2.80;99.90;;;;;;5053938;28;20202;-77
2022/02/07 00:54:07;;;;;;;0.50;0.40;;;2.70;99.90;;;;;;5054351;28;20222;-77
2022/02/07 00:56:35;;;;;;;0.85;0.85;;;2.80;99.90;;;;;;5053919;28;20206;-79
2022/02/07 00:59:01;;;;;;;0.50;0.40;;;2.70;99.90;;;;;;5054430;28;20195;-79
2022/02/07 01:01:28;;;;;;;1.48;0.60;;;2.70;99.90;;;;;;5054043;28;20211;-78
2022/02/07 01:03:55;;;;;;;0.50;0.40;;;2.80;99.90;;;;;;5054296;28;20222;-79
2022/02/07 01:06:22;;;;;;;0.50;0.40;;;2.70;99.90;;;;;;5054723;28;20199;-80
2022/02/07 01:08:52;;;;;;;0.55;0.55;;;2.70;99.90;;;;;;5054386;28;20221;-78
2022/02/07 01:11:32;;;;;;;0.50;0.40;;;2.70;99.90;;;;;;5055183;28;20197;-79
2022/02/07 01:14:12;;;;;;;0.50;0.40;;;2.70;99.90;;;;;;5055800;28;20222;-79
2022/02/07 01:17:09;;;;;;;0.50;0.40;;;2.70;99.90;;;;;;5055097;28;20248;-79
2022/02/07 01:22:40;;;;;;;0.60;0.45;;;2.70;99.90;;;;;;5046452;28;20576;-78
2022/02/07 01:47:46;;;;;;;1.23;1.10;;;2.90;99.90;;;;;;5053978;28;20593;-78
2022/02/07 01:50:44;;;;;;;0.50;0.40;;;2.90;99.90;;;;;;5053160;28;20206;-77
2022/02/07 01:53:21;;;;;;;0.40;0.40;;;2.90;99.90;;;;;;5052815;28;20576;-78
2022/02/07 01:55:54;;;;;;;0.50;0.40;;;3.00;99.90;;;;;;5052842;28;20206;-78
2022/02/07 01:58:21;;;;;;;0.50;0.50;;;3.10;99.90;;;;;;5052795;28;20675;-75
2022/02/07 02:00:49;;;;;;;0.50;0.40;;;3.20;99.90;;;;;;5052853;28;20260;-78
2022/02/07 02:03:17;;;;;;;0.50;0.40;;;3.30;99.90;;;;;;5052767;28;20199;-77
2022/02/07 02:05:44;;;;;;;0.50;0.40;;;3.30;99.90;;;;;;5052567;28;20203;-78
2022/02/07 02:08:12;;;;;;;0.50;0.40;;;3.40;99.90;;;;;;5052458;28;20194;-77
2022/02/07 02:10:43;;;;;;;0.50;0.40;;;3.40;99.90;;;;;;5052834;28;20202;-77
2022/02/07 02:13:14;;;;;;;0.50;0.40;;;3.50;99.90;;;;;;5052625;28;20652;-78
2022/02/07 02:15:47;;;;;;;1.50;1.05;;;3.50;99.90;;;;;;5052821;28;20194;-78
2022/02/07 02:37:52;;;;;;;1.60;1.50;;;3.20;99.90;;;;;;5052375;28;20167;-78
2022/02/07 02:45:49;;;;;;;1.15;0.68;;;3.10;99.90;;;;;;5052206;28;20607;-77
2022/02/07 02:48:19;;;;;;;0.60;0.60;;;3.10;99.90;;;;;;5052081;28;20603;-78
2022/02/07 02:50:49;;;;;;;0.50;0.40;;;3.20;99.90;;;;;;5051766;28;20684;-78
2022/02/07 02:53:18;;;;;;;0.60;0.50;;;3.30;99.90;;;;;;5052033;28;20201;-77
2022/02/07 02:55:47;;;;;;;0.50;0.40;;;3.30;99.90;;;;;;5051470;28;20198;-78
2022/02/07 02:58:18;;;;;;;0.50;0.40;;;3.20;99.90;;;;;;5051805;28;20202;-78
2022/02/07 03:00:46;;;;;;;0.80;0.80;;;3.20;99.90;;;;;;5051759;28;20372;-77
2022/02/07 03:03:13;;;;;;;0.95;0.70;;;3.20;99.90;;;;;;5051638;28;20671;-78
2022/02/07 03:05:43;;;;;;;1.30;1.20;;;3.20;99.90;;;;;;5051793;28;20206;-78
2022/02/07 03:08:10;;;;;;;0.50;0.40;;;3.20;99.90;;;;;;5051664;28;20563;-77
2022/02/07 03:10:46;;;;;;;0.50;0.40;;;3.20;99.90;;;;;;5051461;28;20198;-78
2022/02/07 03:13:17;;;;;;;0.50;0.40;;;3.20;99.90;;;;;;5051614;28;20190;-78
2022/02/07 03:18:30;;;;;;;0.80;0.80;;;3.00;99.90;;;;;;5051168;28;20552;-78
2022/02/07 03:20:59;;;;;;;0.85;0.85;;;3.00;99.90;;;;;;5051037;28;20221;-77
2022/02/07 03:23:26;;;;;;;1.58;1.30;;;2.90;99.90;;;;;;5051234;28;20198;-77
2022/02/07 03:25:54;;;;;;;1.10;1.10;;;2.90;99.90;;;;;;5051911;28;20675;-78
2022/02/07 03:28:24;;;;;;;0.50;0.40;;;2.90;99.90;;;;;;5050577;28;20194;-76
2022/02/07 03:30:51;;;;;;;0.50;0.40;;;3.00;99.90;;;;;;5050888;28;20244;-78
2022/02/07 03:33:18;;;;;;;0.50;0.50;;;3.10;99.90;;;;;;5051478;28;20198;-77
2022/02/07 03:35:44;;;;;;;0.80;0.80;;;3.10;99.90;;;;;;5051886;28;20198;-78
2022/02/07 03:38:11;;;;;;;0.50;0.40;;;3.20;99.90;;;;;;5055766;28;20220;-77
2022/02/07 03:40:39;;;;;;;0.50;0.40;;;3.20;99.90;;;;;;5055154;28;20588;-78
2022/02/07 03:43:05;;;;;;;0.50;0.40;;;3.20;99.90;;;;;;5054822;28;20268;-78
2022/02/07 03:45:33;;;;;;;0.50;0.40;;;3.20;99.90;;;;;;5055331;28;20276;-78
2022/02/07 03:48:00;;;;;;;0.50;0.40;;;3.30;99.90;;;;;;5055597;28;20829;-78
2022/02/07 03:50:29;;;;;;;0.85;0.85;;;3.30;99.90;;;;;;5055526;28;20244;-77
2022/02/07 03:52:56;;;;;;;0.50;0.40;;;3.30;99.90;;;;;;5055568;28;20218;-78
2022/02/07 03:55:22;;;;;;;1.58;1.48;;;3.30;99.90;;;;;;5055104;28;20214;-78
2022/02/07 03:57:49;;;;;;;1.13;0.60;;;3.20;99.90;;;;;;5054842;28;20206;-78
2022/02/07 04:00:16;;;;;;;0.50;0.40;;;3.20;99.90;;;;;;5054756;28;20736;-77
2022/02/07 04:02:49;;;;;;;0.50;0.40;;;3.20;99.90;;;;;;5055260;28;20202;-78
2022/02/07 04:05:41;;;;;;;5.97;0.73;;;3.10;99.90;;;;;;5054717;28;20226;-77
2022/02/07 04:08:09;;;;;;;2.95;2.67;;;3.10;99.90;;;;;;5054928;28;20202;-77
2022/02/07 04:10:43;;;;;;;1.58;1.50;;;3.00;99.90;;;;;;5054615;28;20194;-78
2022/02/07 04:13:12;;;;;;;0.40;0.40;;;3.00;99.90;;;;;;5055422;28;20202;-78
2022/02/07 04:15:39;;;;;;;0.73;0.73;;;3.00;99.90;;;;;;5054645;28;20222;-78
2022/02/07 04:18:11;;;;;;;0.50;0.40;;;3.00;99.90;;;;;;5054962;28;20210;-78
2022/02/07 04:20:39;;;;;;;0.50;0.40;;;3.00;99.90;;;;;;5054551;28;20266;-78
2022/02/07 04:23:06;;;;;;;0.50;0.40;;;3.10;99.90;;;;;;5054758;28;20201;-77
2022/02/07 04:25:33;;;;;;;0.50;0.40;;;3.10;99.90;;;;;;5054677;28;20214;-79
2022/02/07 04:28:00;;;;;;;0.50;0.40;;;3.10;99.90;;;;;;5054553;28;20195;-78
2022/02/07 04:30:27;;;;;;;0.50;0.40;;;3.00;99.90;;;;;;5054585;28;20198;-78
2022/02/07 04:32:54;;;;;;;0.50;0.40;;;3.10;99.90;;;;;;5054783;28;20198;-79
2022/02/07 04:35:22;;;;;;;0.50;0.40;;;3.10;99.90;;;;;;5054965;28;20218;-77
2022/02/07 04:37:48;;;;;;;0.50;0.40;;;3.20;99.90;;;;;;5054907;28;20202;-78
2022/02/07 04:40:15;;;;;;;0.50;0.40;;;3.20;99.90;;;;;;5054474;28;20688;-77
2022/02/07 04:42:42;;;;;;;0.50;0.40;;;3.30;99.90;;;;;;5055072;28;20211;-79
2022/02/07 04:45:27;;;;;;;1.95;1.85;;;3.40;99.90;;;;;;5055220;28;20272;-78
2022/02/07 04:48:25;;;;;;;0.50;0.43;;;3.40;99.90;;;;;;5054519;28;20660;-78
2022/02/07 04:50:55;;;;;;;0.50;0.40;;;3.40;99.90;;;;;;5053692;28;20199;-78
2022/02/07 04:53:37;;;;;;;0.50;0.40;;;3.50;99.90;;;;;;5055037;28;20708;-78
2022/02/07 04:56:19;;;;;;;0.63;0.63;;;3.50;99.90;;;;;;5054974;28;20588;-78
2022/02/07 04:58:57;;;;;;;0.70;0.70;;;3.60;99.90;;;;;;5054576;28;20195;-78
2022/02/07 05:01:32;;;;;;;0.70;0.70;;;3.60;99.90;;;;;;5054622;28;20293;-78
2022/02/07 05:04:06;;;;;;;0.50;0.40;;;3.60;99.90;;;;;;5054479;28;20218;-79
2022/02/07 05:14:51;;;;;;;0.70;0.60;;;3.50;99.90;;;;;;5036761;28;20568;-78
2022/02/07 05:17:20;;;;;;;1.17;0.73;;;3.60;99.90;;;;;;5054595;28;20626;-79
2022/02/07 05:19:48;;;;;;;1.77;1.23;;;3.70;99.90;;;;;;5054958;28;20568;-77
2022/02/07 05:22:16;;;;;;;0.50;0.40;;;3.70;99.90;;;;;;5055952;28;20221;-78
2022/02/07 05:24:43;;;;;;;0.50;0.40;;;3.80;99.90;;;;;;5054154;28;20284;-79
2022/02/07 05:27:10;;;;;;;0.73;0.50;;;3.80;99.90;;;;;;5054495;28;20195;-77
2022/02/07 05:29:36;;;;;;;0.50;0.40;;;3.90;99.90;;;;;;5054221;28;20264;-79
2022/02/07 05:32:05;;;;;;;0.50;0.30;;;3.90;99.90;;;;;;5054723;28;20228;-79
2022/02/07 05:34:32;;;;;;;1.42;0.82;;;4.00;99.90;;;;;;5053468;28;20250;-78
2022/02/07 05:36:59;;;;;;;5.10;0.82;;;4.00;99.90;;;;;;5054997;28;20198;-80
2022/02/07 05:39:33;;;;;;;0.50;0.40;;;4.00;99.90;;;;;;5054374;28;20205;-78
2022/02/07 05:42:04;;;;;;;0.50;0.40;;;4.10;99.90;;;;;;5053975;28;20219;-79
2022/02/07 05:44:31;;;;;;;0.50;0.40;;;4.10;99.90;;;;;;5054150;28;20225;-79
2022/02/07 05:46:57;;;;;;;6.95;1.55;;;4.20;99.90;;;;;;5054784;28;20206;-81
2022/02/07 05:49:24;;;;;;;0.50;0.50;;;4.20;99.90;;;;;;5053944;28;20679;-77
2022/02/07 05:51:51;;;;;;;0.50;0.40;;;4.20;99.90;;;;;;5054169;28;20226;-79
2022/02/07 05:54:18;;;;;;;0.50;0.40;;;4.20;99.90;;;;;;5053809;28;20214;-79
2022/02/07 05:56:46;;;;;;;0.50;0.40;;;4.30;99.90;;;;;;5053859;28;20244;-79
2022/02/07 05:59:13;;;;;;;0.50;0.50;;;4.30;99.90;;;;;;5052464;28;20252;-78
2022/02/07 06:01:39;;;;;;;0.50;0.40;;;4.30;99.90;;;;;;5053484;28;20214;-79
2022/02/07 06:04:06;;;;;;;0.50;0.40;;;4.40;99.90;;;;;;5053378;28;20226;-78
2022/02/07 06:06:33;;;;;;;10.20;1.15;;;4.40;99.90;;;;;;5054729;28;20568;-78
2022/02/07 06:09:00;;;;;;;0.50;0.40;;;4.40;99.90;;;;;;5053173;28;20198;-78
2022/02/07 06:14:13;;;;;;;0.50;0.40;;;4.40;99.90;;;;;;5060265;28;20206;-81
2022/02/07 06:16:40;;;;;;;0.50;0.40;;;4.40;99.90;;;;;;5075103;28;20532;-81
2022/02/07 06:19:07;;;;;;;0.88;0.85;;;4.50;99.90;;;;;;5076468;28;20190;-81
2022/02/07 06:21:34;;;;;;;0.50;0.40;;;4.50;99.90;;;;;;5076083;28;20233;-80
2022/02/07 06:24:02;;;;;;;0.50;0.40;;;4.50;99.90;;;;;;5077774;28;20244;-80
2022/02/07 06:26:30;;;;;;;0.50;0.40;;;4.50;99.90;;;;;;5077596;28;20221;-81
2022/02/07 06:28:57;;;;;;;0.50;0.50;;;4.50;99.90;;;;;;5077697;28;20671;-80
2022/02/07 06:31:25;;;;;;;0.50;0.40;;;4.40;99.90;;;;;;5078065;28;20548;-81
2022/02/07 06:33:52;;;;;;;1.17;0.82;;;4.40;99.90;;;;;;5077072;28;20218;-82
2022/02/07 06:36:20;;;;;;;1.25;0.70;;;4.40;99.90;;;;;;5077481;28;20280;-80
2022/02/07 06:38:47;;;;;;;0.50;0.40;;;4.30;99.90;;;;;;5076615;28;20208;-79
2022/02/07 06:41:14;;;;;;;0.50;0.40;;;4.20;99.90;;;;;;5077769;28;20725;-81
2022/02/07 06:43:40;;;;;;;0.70;0.57;;;4.30;99.90;;;;;;5076926;28;20218;-78
2022/02/07 06:46:07;;;;;;;0.50;0.40;;;4.30;99.90;;;;;;5076622;28;20249;-80
2022/02/07 06:48:35;;;;;;;0.50;0.40;;;4.30;99.90;;;;;;5077013;28;20251;-80
2022/02/07 06:51:02;;;;;;;0.50;0.40;;;4.30;99.90;;;;;;5076278;28;20225;-81
2022/02/07 06:53:29;;;;;;;0.50;0.50;;;4.30;99.90;;;;;;5078070;28;20267;-80
2022/02/07 06:55:56;;;;;;;0.50;0.40;;;4.30;99.90;;;;;;5077137;28;20265;-80
2022/02/07 06:58:23;;;;;;;0.50;0.40;;;4.30;99.90;;;;;;5077171;28;20194;-80
2022/02/07 07:00:50;;;;;;;0.50;0.40;;;4.30;99.90;;;;;;5076701;28;20189;-79
2022/02/07 07:03:19;;;;;;;1.77;0.82;;;4.20;99.90;;;;;;5077191;28;20714;-81
2022/02/07 07:05:49;;;;;;;1.10;1.10;;;4.20;99.90;;;;;;5076112;28;20197;-82
2022/02/07 07:08:16;;;;;;;0.50;0.40;;;4.20;99.90;;;;;;5076777;28;20208;-82
2022/02/07 07:10:44;;;;;;;2.28;2.13;;;4.20;99.90;;;;;;5075339;28;20205;-82
2022/02/07 07:13:14;;;;;;;0.50;0.40;;;4.20;99.90;;;;;;5076090;28;20684;-81
2022/02/07 07:15:43;;;;;;;0.50;0.40;;;4.20;99.90;;;;;;5076215;28;20239;-79
2022/02/07 07:18:10;;;;;;;0.50;0.40;;;4.20;99.90;;;;;;5076212;28;20251;-82
2022/02/07 07:20:37;;;;;;;0.50;0.40;;;4.20;99.90;;;;;;5075590;28;20197;-82
2022/02/07 07:23:06;;;;;;;0.50;0.50;;;4.10;99.90;;;;;;5075818;28;20218;-80
2022/02/07 07:25:32;;;;;;;0.50;0.40;;;4.10;99.90;;;;;;5076255;28;20194;-80
2022/02/07 07:28:02;;;;;;;0.50;0.40;;;4.20;99.90;;;;;;5075665;28;20663;-82
2022/02/07 07:30:32;;;;;;;0.50;0.40;;;4.20;99.90;;;;;;5074920;28;20638;-81
2022/02/07 07:33:03;;;;;;;0.50;0.40;;;4.20;99.90;;;;;;5075977;28;20273;-80
2022/02/07 07:35:30;;;;;;;0.88;0.88;;;4.30;99.90;;;;;;5076144;28;20551;-81
2022/02/07 07:37:57;;;;;;;0.50;0.40;;;4.30;99.90;;;;;;5075832;28;20193;-82
2022/02/07 07:40:25;;;;;;;0.50;0.40;;;4.30;99.90;;;;;;5075417;28;20198;-81
2022/02/07 07:42:54;;;;;;;0.50;0.40;;;4.40;99.90;;;;;;5075849;28;20690;-81
2022/02/07 07:45:24;;;;;;;0.50;0.40;;;4.40;99.90;;;;;;5075130;28;20205;-78
2022/02/07 07:47:57;;;;;;;0.68;0.68;;;4.50;99.90;;;;;;5075040;28;20212;-81
2022/02/07 07:50:28;;;;;;;0.50;0.40;;;4.60;99.90;;;;;;5075123;28;20227;-81
2022/02/07 07:53:08;;;;;;;0.50;0.40;;;4.90;99.90;;;;;;5076060;28;20222;-81
2022/02/07 08:01:23;;;;;;;0.60;0.60;;;5.00;99.90;;;;;;5074699;28;20319;-80
2022/02/07 08:03:52;;;;;;;0.50;0.40;;;5.40;99.90;;;;;;5074914;28;20654;-81
2022/02/07 08:06:23;;;;;;;0.50;0.40;;;6.10;99.90;;;;;;5073496;28;20201;-81
2022/02/07 08:09:12;;;;;;;0.50;0.40;;;6.90;99.90;;;;;;5075046;28;20202;-81
2022/02/07 08:11:39;;;;;;;0.50;0.40;;;7.70;99.90;;;;;;5075174;28;20197;-79
2022/02/07 08:14:06;;;;;;;0.50;0.40;;;8.00;99.90;;;;;;5077281;28;20207;-81
2022/02/07 08:16:33;;;;;;;0.50;0.40;;;8.10;99.90;;;;;;5084125;28;20202;-81
2022/02/07 08:19:05;;;;;;;0.50;0.40;;;8.60;99.90;;;;;;5081752;28;20196;-82
2022/02/07 08:21:32;;;;;;;0.50;0.40;;;9.00;99.90;;;;;;5076099;28;20289;-82
2022/02/07 08:23:59;;;;;;;0.63;0.63;;;9.50;99.90;;;;;;5079211;28;20217;-77
2022/02/07 08:26:26;;;;;;;0.50;0.50;;;10.20;99.90;;;;;;5078927;28;20255;-81
2022/02/07 08:28:54;;;;;;;0.50;0.40;;;10.70;99.90;;;;;;5076889;28;20200;-80
2022/02/07 08:31:22;;;;;;;0.50;0.40;;;10.60;99.90;;;;;;5079084;28;20303;-81
2022/02/07 08:33:49;;;;;;;0.50;0.40;;;10.20;99.90;;;;;;5079362;28;20733;-80
2022/02/07 08:36:17;;;;;;;0.50;0.40;;;9.60;99.90;;;;;;5079250;28;20231;-82
2022/02/07 08:38:43;;;;;;;0.50;0.40;;;8.90;99.90;;;;;;5079423;28;20196;-80
2022/02/07 08:41:10;;;;;;;0.50;0.40;;;8.50;99.90;;;;;;5079149;28;20606;-80
2022/02/07 08:43:37;;;;;;;3.95;3.65;;;8.20;99.90;;;;;;5078950;28;20357;-81
2022/02/07 08:46:05;;;;;;;0.50;0.40;;;8.40;99.90;;;;;;5078449;28;20202;-80
2022/02/07 08:48:32;;;;;;;0.75;0.75;;;8.80;99.90;;;;;;5079090;28;20201;-80
2022/02/07 08:50:58;;;;;;;0.50;0.40;;;8.90;99.90;;;;;;5078780;28;20602;-80
2022/02/07 08:53:28;;;;;;;0.50;0.40;;;8.70;99.90;;;;;;5080016;28;20518;-80
2022/02/07 08:55:55;;;;;;;1.60;0.70;;;8.50;99.90;;;;;;5078007;28;20199;-82
2022/02/07 08:58:25;;;;;;;0.50;0.40;;;8.70;99.90;;;;;;5078316;28;20323;-82
2022/02/07 09:00:57;;;;;;;0.50;0.40;;;8.40;99.90;;;;;;5078456;28;20222;-81
2022/02/07 09:03:43;;;;;;;0.60;0.60;;;8.10;99.90;;;;;;5078201;28;20755;-82
2022/02/07 09:06:27;;;;;;;1.88;0.55;;;7.50;99.90;;;;;;5077280;28;20199;-82
2022/02/07 09:09:07;;;;;;;0.50;0.50;;;7.70;99.90;;;;;;5078005;28;20188;-82
2022/02/07 09:11:34;;;;;;;11.25;2.60;;;8.00;99.90;;;;;;5078154;28;20250;-82
2022/02/07 09:14:08;;;;;;;0.70;0.70;;;7.90;99.90;;;;;;5077033;28;20435;-82
2022/02/07 09:16:35;;;;;;;0.50;0.40;;;7.60;99.90;;;;;;5078275;28;20272;-81
2022/02/07 09:19:04;;;;;;;0.50;0.40;;;7.50;99.90;;;;;;5077522;28;20283;-82
2022/02/07 09:21:31;;;;;;;0.50;0.40;;;7.40;99.90;;;;;;5077156;28;20195;-82
2022/02/07 09:23:59;;;;;;;0.50;0.40;;;7.40;99.90;;;;;;5076822;28;20273;-81
2022/02/07 09:26:26;;;;;;;4.20;0.90;;;7.40;99.90;;;;;;5077197;28;20700;-81
2022/02/07 09:28:53;;;;;;;0.50;0.50;;;7.30;99.90;;;;;;5077061;28;20282;-81
2022/02/07 09:31:21;;;;;;;0.50;0.40;;;7.20;99.90;;;;;;5077295;28;20214;-81
2022/02/07 09:33:48;;;;;;;0.50;0.40;;;7.10;99.90;;;;;;5076358;28;20614;-80
2022/02/07 09:36:17;;;;;;;0.50;0.50;;;7.40;99.90;;;;;;5078233;28;20197;-81
2022/02/07 09:38:45;;;;;;;0.50;0.40;;;8.00;99.90;;;;;;5078855;28;20227;-81
2022/02/07 09:41:12;;;;;;;0.50;0.40;;;8.40;99.90;;;;;;5079818;28;20647;-81
2022/02/07 09:43:45;;;;;;;0.50;0.40;;;8.60;99.90;;;;;;5079956;28;20212;-78
2022/02/07 09:46:18;;;;;;;0.50;0.40;;;8.60;99.90;;;;;;5081269;28;20244;-79
2022/02/07 09:48:45;;;;;;;0.50;0.40;;;8.50;99.90;;;;;;5081207;28;20339;-80
2022/02/07 09:51:13;;;;;;;0.50;0.40;;;8.60;99.90;;;;;;5082094;28;20196;-80
2022/02/07 09:53:42;;;;;;;0.50;0.40;;;8.70;99.90;;;;;;5079314;28;20322;-78
2022/02/07 09:56:11;;;;;;;0.50;0.40;;;8.80;99.90;;;;;;5080191;28;20190;-80
2022/02/07 09:58:39;;;;;;;1.95;0.70;;;9.10;99.90;;;;;;5078935;28;20200;-81
2022/02/07 10:01:10;;;;;;;0.50;0.40;;;9.30;99.90;;;;;;5080256;28;20197;-80
2022/02/07 10:03:49;;;;;;;0.50;0.40;;;9.20;99.90;;;;;;5079379;28;20252;-79
2022/02/07 10:06:29;;;;;;;4.35;1.05;;;9.00;99.90;;;;;;5081299;28;20231;-77
2022/02/07 10:09:12;;;;;;;1.20;1.13;;;8.60;99.90;;;;;;5080777;28;20199;-82
2022/02/07 10:11:56;;;;;;;0.50;0.40;;;8.40;99.90;;;;;;5078899;28;20200;-78
2022/02/07 10:14:28;;;;;;;0.90;0.90;;;8.30;99.90;;;;;;5079120;28;20179;-82
2022/02/07 10:17:08;;;;;;;0.50;0.40;;;7.90;99.90;;;;;;5078702;28;20232;-81
2022/02/07 10:19:47;;;;;;;13.98;1.02;;;7.90;99.90;;;;;;5077844;28;20213;-81
2022/02/07 10:39:13;;;;;;;0.50;0.40;;;9.10;99.90;;;;;;5068336;28;20185;-81
2022/02/07 10:42:01;;;;;;;0.50;0.40;;;9.10;99.90;;;;;;5077006;28;20479;-82
2022/02/07 10:44:35;;;;;;;0.50;0.40;;;9.10;99.90;;;;;;5076256;28;20259;-82
2022/02/07 10:47:09;;;;;;;0.50;0.40;;;9.10;99.90;;;;;;5077061;28;20540;-81
2022/02/07 10:49:35;;;;;;;7.45;2.60;;;9.30;99.90;;;;;;5076390;28;20198;-81
2022/02/07 10:52:03;;;;;;;0.50;0.40;;;9.20;99.90;;;;;;5077088;28;20217;-82
2022/02/07 10:54:30;;;;;;;0.50;0.40;;;9.10;99.90;;;;;;5076364;28;20193;-82
2022/02/07 10:56:58;;;;;;;9.77;2.75;;;9.00;99.90;;;;;;5076590;28;20276;-80
2022/02/07 10:59:27;;;;;;;0.88;0.88;;;9.00;99.90;;;;;;5077519;28;20292;-82
2022/02/07 11:04:51;;;;;;;0.70;0.70;;;9.00;99.90;;;;;;5065813;28;20189;-81
2022/02/07 11:07:19;;;;;;;2.50;1.17;;;9.20;99.90;;;;;;5076403;28;20177;-82
2022/02/07 11:10:01;;;;;;;5.15;1.50;;;9.40;99.90;;;;;;5075985;28;20205;-82
2022/02/07 11:15:25;;;;;;;0.50;0.40;;;8.90;99.90;;;;;;5058135;28;20196;-80
2022/02/07 11:18:07;;;;;;;24.27;1.08;;;8.90;99.90;;;;;;5076146;28;20181;-82
2022/02/07 11:20:53;;;;;;;0.50;0.40;;;8.90;99.90;;;;;;5076173;28;20716;-81
2022/02/07 11:23:33;;;;;;;0.50;0.40;;;8.70;99.90;;;;;;5076362;28;20244;-81
2022/02/07 11:26:04;;;;;;;0.50;0.40;;;8.50;99.90;;;;;;5076733;28;20198;-81
2022/02/07 11:28:42;;;;;;;1.88;1.52;;;8.50;99.90;;;;;;5075037;28;20205;-80
2022/02/07 11:31:09;;;;;;;0.50;0.40;;;8.40;99.90;;;;;;5075972;28;20203;-80
2022/02/07 11:33:51;;;;;;;17.75;1.40;;;8.20;99.90;;;;;;5076648;28;20217;-81
2022/02/07 11:36:25;;;;;;;0.60;0.40;;;8.30;99.90;;;;;;5076920;28;20590;-81
2022/02/07 11:39:01;;;;;;;1.48;1.45;;;8.80;99.90;;;;;;5076033;28;20190;-80
2022/02/07 11:41:27;;;;;;;1.40;0.82;;;9.60;99.90;;;;;;5076289;28;20231;-82
2022/02/07 11:43:57;;;;;;;2.80;0.70;;;10.10;99.90;;;;;;5076973;28;20240;-82
2022/02/07 11:46:23;;;;;;;0.50;0.40;;;10.40;99.90;;;;;;5075101;28;20198;-81
2022/02/07 11:48:51;;;;;;;1.95;0.75;;;10.20;99.90;;;;;;5075240;28;20190;-81
2022/02/07 11:51:20;;;;;;;5.75;2.47;;;10.00;99.90;;;;;;5075739;28;20198;-82
2022/02/07 11:53:50;;;;;;;0.50;0.40;;;9.40;99.90;;;;;;5077122;28;20511;-82
2022/02/07 11:56:29;;;;;;;0.50;0.40;;;9.20;99.90;;;;;;5077158;28;20549;-80
2022/02/07 11:59:18;;;;;;;3.90;2.53;;;9.10;99.90;;;;;;5079000;28;20192;-81
2022/02/07 12:02:00;;;;;;;0.50;0.40;;;8.90;99.90;;;;;;5079442;28;20200;-82
2022/02/07 12:04:29;;;;;;;0.50;0.40;;;9.00;99.90;;;;;;5079098;28;20237;-82
2022/02/07 12:07:07;;;;;;;2.25;0.50;;;9.10;99.90;;;;;;5078774;28;20205;-82
2022/02/07 12:09:34;;;;;;;0.50;0.40;;;9.10;99.90;;;;;;5079411;28;20194;-82
2022/02/07 12:12:01;;;;;;;0.50;0.40;;;9.30;99.90;;;;;;5079472;28;20221;-82
2022/02/07 12:14:34;;;;;;;0.50;0.40;;;9.30;99.90;;;;;;5108777;22;20230;-79
2022/02/07 12:17:02;;;;;;;0.50;0.40;;;9.40;99.90;;;;;;5050261;28;20202;-76
2022/02/07 12:19:38;;;;;;;0.50;0.40;;;9.40;99.90;;;;;;5056406;28;20643;-77
2022/02/07 12:22:16;;;;;;;2.60;0.80;;;9.30;99.90;;;;;;5052967;28;20209;-77
2022/02/07 12:24:56;;;;;;;0.50;0.40;;;9.30;99.90;;;;;;5050114;28;20226;-77
2022/02/07 12:27:23;;;;;;;0.80;0.75;;;9.20;99.90;;;;;;5054727;28;20200;-77
2022/02/07 12:32:45;;;;;;;0.75;0.75;;;8.90;99.90;;;;;;5091538;28;20575;-78
2022/02/07 12:35:12;;;;;;;0.50;0.40;;;9.10;99.90;;;;;;5092114;28;20574;-78
2022/02/07 12:37:40;;;;;;;0.50;0.40;;;9.10;99.90;;;;;;5092395;28;20197;-78
2022/02/07 12:40:09;;;;;;;0.50;0.40;;;9.10;99.90;;;;;;5090067;28;20211;-76
2022/02/07 12:42:37;;;;;;;0.50;0.40;;;9.10;99.90;;;;;;5089757;28;20737;-78
2022/02/07 12:45:05;;;;;;;1.45;1.35;;;9.30;99.90;;;;;;5089392;28;20217;-77
2022/02/07 12:47:34;;;;;;;0.50;0.40;;;9.40;99.90;;;;;;5089226;28;20210;-77
2022/02/07 12:50:08;;;;;;;0.50;0.40;;;9.30;99.90;;;;;;5089239;28;20575;-77
2022/02/07 12:52:35;;;;;;;0.50;0.40;;;9.30;99.90;;;;;;5089221;28;20199;-77
2022/02/07 12:55:02;;;;;;;1.50;0.90;;;9.30;99.90;;;;;;5089116;28;20722;-77
2022/02/07 12:57:33;;;;;;;0.50;0.40;;;9.30;99.90;;;;;;5089095;28;20200;-77
2022/02/07 13:00:00;;;;;;;0.82;0.82;;;9.30;99.90;;;;;;5088391;28;20201;-77
2022/02/07 13:02:28;;;;;;;1.05;0.93;;;9.10;99.90;;;;;;5088456;28;20192;-76
2022/02/07 13:04:55;;;;;;;0.50;0.40;;;8.80;99.90;;;;;;5089758;28;20254;-77
2022/02/07 13:07:25;;;;;;;0.50;0.40;;;8.50;99.90;;;;;;5089281;28;20201;-78
2022/02/07 13:09:54;;;;;;;1.45;1.35;;;8.20;99.90;;;;;;5088715;28;20196;-77
2022/02/07 13:12:36;;;;;;;0.70;0.55;;;8.30;99.90;;;;;;5088819;28;20582;-77
2022/02/07 13:15:03;;;;;;;0.70;0.70;;;8.30;99.90;;;;;;5089241;28;20223;-77
2022/02/07 13:17:31;;;;;;;0.68;0.68;;;8.30;99.90;;;;;;5090083;28;20196;-78
2022/02/07 13:19:58;;;;;;;0.50;0.40;;;8.40;99.90;;;;;;5089852;28;20197;-77
2022/02/07 13:22:26;;;;;;;0.70;0.50;;;8.50;99.90;;;;;;5089557;28;20650;-78
2022/02/07 13:24:54;;;;;;;2.28;0.60;;;8.30;99.90;;;;;;5090361;28;20220;-78
2022/02/07 13:27:23;;;;;;;0.60;0.50;;;8.10;99.90;;;;;;5089564;28;20558;-77
2022/02/07 13:29:54;;;;;;;0.70;0.70;;;8.00;99.90;;;;;;5089545;28;20201;-77
2022/02/07 13:32:26;;;;;;;1.40;1.30;;;8.40;99.90;;;;;;5089676;28;20755;-76
2022/02/07 13:35:04;;;;;;;0.70;0.70;;;8.80;99.90;;;;;;5088405;28;20220;-77
2022/02/07 13:37:37;;;;;;;1.95;1.25;;;9.20;99.90;;;;;;5088874;28;20226;-77
2022/02/07 13:40:06;;;;;;;0.50;0.40;;;9.40;99.90;;;;;;5088332;28;20206;-77
2022/02/07 13:42:36;;;;;;;1.50;1.40;;;9.80;99.90;;;;;;5083356;28;20194;-77
2022/02/07 13:45:07;;;;;;;0.80;0.60;;;10.10;99.90;;;;;;5074901;28;20218;-77
2022/02/07 13:47:34;;;;;;;0.50;0.40;;;10.50;99.90;;;;;;5074741;28;20451;-76
2022/02/07 13:50:05;;;;;;;4.40;2.30;;;11.00;99.90;;;;;;5075428;28;20514;-77
2022/02/07 13:52:38;;;;;;;1.47;0.50;;;10.90;99.90;;;;;;5075227;28;20510;-77
2022/02/07 13:55:26;;;;;;;0.50;0.40;;;10.70;99.90;;;;;;5075709;28;20456;-77
2022/02/07 13:58:00;;;;;;;0.50;0.40;;;10.30;99.90;;;;;;5071137;28;20879;-77
2022/02/07 14:00:29;;;;;;;0.50;0.40;;;10.00;99.90;;;;;;5075437;28;20447;-78
2022/02/07 14:03:14;;;;;;;1.15;1.15;;;9.80;99.90;;;;;;5077080;28;20424;-77
2022/02/07 14:05:43;;;;;;;0.50;0.40;;;9.50;99.90;;;;;;5074733;28;20198;-78
2022/02/07 14:08:13;;;;;;;0.60;0.60;;;9.20;99.90;;;;;;5075403;28;20209;-77
2022/02/07 14:10:41;;;;;;;4.57;2.63;;;9.00;99.90;;;;;;5074617;28;20206;-77
2022/02/07 14:13:10;;;;;;;1.55;1.48;;;9.20;99.90;;;;;;5074880;28;20210;-79
2022/02/07 14:15:39;;;;;;;0.95;0.73;;;9.10;99.90;;;;;;5075797;28;20206;-78
2022/02/07 14:18:10;;;;;;;3.30;3.10;;;9.00;99.90;;;;;;5075043;28;20201;-77
2022/02/07 14:20:37;;;;;;;4.90;1.70;;;9.00;99.90;;;;;;5074095;28;20238;-78
2022/02/07 14:23:04;;;;;;;0.50;0.40;;;8.90;99.90;;;;;;5074292;28;20580;-77
2022/02/07 14:25:32;;;;;;;0.60;0.50;;;8.80;99.90;;;;;;5074197;28;20623;-77
2022/02/07 14:28:01;;;;;;;0.60;0.47;;;8.90;99.90;;;;;;5074521;28;20196;-79
2022/02/07 14:30:30;;;;;;;0.50;0.40;;;9.00;99.90;;;;;;5074602;28;20203;-78
2022/02/07 14:32:58;;;;;;;0.60;0.60;;;9.10;99.90;;;;;;5075016;28;20209;-78
2022/02/07 14:35:25;;;;;;;0.50;0.40;;;8.90;99.90;;;;;;5074617;28;20200;-79
2022/02/07 14:37:52;;;;;;;0.50;0.40;;;8.80;99.90;;;;;;5075448;28;20192;-78
2022/02/07 14:40:22;;;;;;;0.60;0.40;;;8.70;99.90;;;;;;5074717;28;20201;-79
2022/02/07 14:42:50;;;;;;;0.50;0.40;;;8.80;99.90;;;;;;5075174;28;20204;-78
2022/02/07 14:45:24;;;;;;;0.70;0.70;;;9.20;99.90;;;;;;5074936;28;20217;-78
2022/02/07 14:47:55;;;;;;;0.50;0.43;;;9.20;99.90;;;;;;5074868;28;20181;-78